sensor_id;sensor_type;location;lat;lon;timestamp;P1;durP1;ratioP1;P2;durP2;ratioP2
12363;SDS011;6246;50.826;4.712;2022-12-08T00:00:35;1.93;;;1.83;;
12363;SDS011;6246;50.826;4.712;2022-12-08T00:03:01;2.40;;;1.93;;
12363;SDS011;6246;50.826;4.712;2022-12-08T00:05:27;1.60;;;1.50;;
12363;SDS011;6246;50.826;4.712;2022-12-08T00:08:11;2.07;;;1.90;;
12363;SDS011;6246;50.826;4.712;2022-12-08T00:10:56;1.70;;;1.60;;
12363;SDS011;6246;50.826;4.712;2022-12-08T00:13:22;1.73;;;1.63;;
12363;SDS011;6246;50.826;4.712;2022-12-08T00:15:48;2.27;;;2.07;;
12363;SDS011;6246;50.826;4.712;2022-12-08T00:18:14;2.20;;;1.83;;
12363;SDS011;6246;50.826;4.712;2022-12-08T00:20:40;2.23;;;2.00;;
12363;SDS011;6246;50.826;4.712;2022-12-08T00:23:06;1.93;;;1.70;;
12363;SDS011;6246;50.826;4.712;2022-12-08T00:25:34;2.60;;;2.20;;
12363;SDS011;6246;50.826;4.712;2022-12-08T00:28:00;1.83;;;1.73;;
12363;SDS011;6246;50.826;4.712;2022-12-08T00:30:26;2.10;;;1.90;;
12363;SDS011;6246;50.826;4.712;2022-12-08T00:32:52;1.50;;;1.40;;
12363;SDS011;6246;50.826;4.712;2022-12-08T00:35:18;1.77;;;1.67;;
12363;SDS011;6246;50.826;4.712;2022-12-08T00:37:45;2.30;;;2.07;;
12363;SDS011;6246;50.826;4.712;2022-12-08T00:40:11;2.63;;;1.87;;
12363;SDS011;6246;50.826;4.712;2022-12-08T00:42:37;2.93;;;2.30;;
12363;SDS011;6246;50.826;4.712;2022-12-08T00:45:03;2.30;;;2.10;;
12363;SDS011;6246;50.826;4.712;2022-12-08T00:47:29;2.23;;;2.03;;
12363;SDS011;6246;50.826;4.712;2022-12-08T00:49:55;1.93;;;1.80;;
12363;SDS011;6246;50.826;4.712;2022-12-08T00:52:21;2.93;;;2.27;;
12363;SDS011;6246;50.826;4.712;2022-12-08T00:54:47;2.20;;;2.00;;
12363;SDS011;6246;50.826;4.712;2022-12-08T00:57:13;2.10;;;1.90;;
12363;SDS011;6246;50.826;4.712;2022-12-08T00:59:39;2.80;;;2.00;;
12363;SDS011;6246;50.826;4.712;2022-12-08T01:02:05;2.60;;;2.23;;
12363;SDS011;6246;50.826;4.712;2022-12-08T01:04:31;2.67;;;1.80;;
12363;SDS011;6246;50.826;4.712;2022-12-08T01:06:57;2.33;;;2.17;;
12363;SDS011;6246;50.826;4.712;2022-12-08T01:09:23;3.07;;;2.30;;
12363;SDS011;6246;50.826;4.712;2022-12-08T01:11:49;2.60;;;2.40;;
12363;SDS011;6246;50.826;4.712;2022-12-08T01:14:15;2.53;;;2.33;;
12363;SDS011;6246;50.826;4.712;2022-12-08T01:16:42;2.37;;;2.07;;
12363;SDS011;6246;50.826;4.712;2022-12-08T01:19:09;2.43;;;2.17;;
12363;SDS011;6246;50.826;4.712;2022-12-08T01:21:35;2.50;;;2.33;;
12363;SDS011;6246;50.826;4.712;2022-12-08T01:24:01;1.93;;;1.80;;
12363;SDS011;6246;50.826;4.712;2022-12-08T01:26:27;2.50;;;2.30;;
12363;SDS011;6246;50.826;4.712;2022-12-08T01:28:53;2.40;;;2.20;;
12363;SDS011;6246;50.826;4.712;2022-12-08T01:31:20;2.23;;;2.13;;
12363;SDS011;6246;50.826;4.712;2022-12-08T01:33:46;2.40;;;2.20;;
12363;SDS011;6246;50.826;4.712;2022-12-08T01:36:22;2.30;;;2.10;;
12363;SDS011;6246;50.826;4.712;2022-12-08T01:38:49;2.37;;;2.17;;
12363;SDS011;6246;50.826;4.712;2022-12-08T01:41:16;2.50;;;2.03;;
12363;SDS011;6246;50.826;4.712;2022-12-08T01:46:47;2.77;;;2.30;;
12363;SDS011;6246;50.826;4.712;2022-12-08T01:49:24;2.33;;;2.20;;
12363;SDS011;6246;50.826;4.712;2022-12-08T01:51:54;2.47;;;2.10;;
12363;SDS011;6246;50.826;4.712;2022-12-08T01:54:22;2.60;;;2.40;;
12363;SDS011;6246;50.826;4.712;2022-12-08T01:56:57;3.33;;;2.10;;
12363;SDS011;6246;50.826;4.712;2022-12-08T01:59:25;2.37;;;2.27;;
12363;SDS011;6246;50.826;4.712;2022-12-08T02:01:52;2.60;;;2.40;;
12363;SDS011;6246;50.826;4.712;2022-12-08T02:04:18;3.27;;;2.97;;
12363;SDS011;6246;50.826;4.712;2022-12-08T02:06:44;3.00;;;2.40;;
12363;SDS011;6246;50.826;4.712;2022-12-08T02:09:11;2.47;;;2.27;;
12363;SDS011;6246;50.826;4.712;2022-12-08T02:11:38;2.50;;;2.30;;
12363;SDS011;6246;50.826;4.712;2022-12-08T02:14:05;3.43;;;2.77;;
12363;SDS011;6246;50.826;4.712;2022-12-08T02:19:12;3.03;;;2.40;;
12363;SDS011;6246;50.826;4.712;2022-12-08T02:21:48;4.13;;;2.87;;
12363;SDS011;6246;50.826;4.712;2022-12-08T02:24:24;2.67;;;2.47;;
12363;SDS011;6246;50.826;4.712;2022-12-08T02:29:56;2.70;;;2.50;;
12363;SDS011;6246;50.826;4.712;2022-12-08T02:37:54;2.53;;;2.33;;
12363;SDS011;6246;50.826;4.712;2022-12-08T02:40:28;2.83;;;2.63;;
12363;SDS011;6246;50.826;4.712;2022-12-08T02:43:19;3.07;;;2.40;;
12363;SDS011;6246;50.826;4.712;2022-12-08T02:45:43;3.30;;;3.00;;
12363;SDS011;6246;50.826;4.712;2022-12-08T02:48:10;3.27;;;2.97;;
12363;SDS011;6246;50.826;4.712;2022-12-08T02:50:37;3.70;;;2.73;;
12363;SDS011;6246;50.826;4.712;2022-12-08T02:53:03;4.10;;;3.10;;
12363;SDS011;6246;50.826;4.712;2022-12-08T02:58:09;3.20;;;2.90;;
12363;SDS011;6246;50.826;4.712;2022-12-08T03:08:29;3.50;;;3.20;;
12363;SDS011;6246;50.826;4.712;2022-12-08T03:11:01;3.67;;;2.90;;
12363;SDS011;6246;50.826;4.712;2022-12-08T03:14:02;3.27;;;2.97;;
12363;SDS011;6246;50.826;4.712;2022-12-08T03:16:22;4.10;;;2.97;;
12363;SDS011;6246;50.826;4.712;2022-12-08T03:18:59;3.30;;;3.00;;
12363;SDS011;6246;50.826;4.712;2022-12-08T03:21:26;3.60;;;3.30;;
12363;SDS011;6246;50.826;4.712;2022-12-08T03:23:52;3.80;;;3.50;;
12363;SDS011;6246;50.826;4.712;2022-12-08T03:26:30;3.50;;;3.20;;
12363;SDS011;6246;50.826;4.712;2022-12-08T03:28:58;4.20;;;3.80;;
12363;SDS011;6246;50.826;4.712;2022-12-08T03:31:25;4.40;;;3.40;;
12363;SDS011;6246;50.826;4.712;2022-12-08T03:33:53;3.83;;;3.37;;
12363;SDS011;6246;50.826;4.712;2022-12-08T03:36:21;3.73;;;3.40;;
12363;SDS011;6246;50.826;4.712;2022-12-08T03:38:49;4.43;;;3.17;;
12363;SDS011;6246;50.826;4.712;2022-12-08T03:41:16;4.37;;;3.53;;
12363;SDS011;6246;50.826;4.712;2022-12-08T03:43:55;4.77;;;3.33;;
12363;SDS011;6246;50.826;4.712;2022-12-08T03:46:24;3.63;;;2.90;;
12363;SDS011;6246;50.826;4.712;2022-12-08T03:48:51;3.67;;;3.37;;
12363;SDS011;6246;50.826;4.712;2022-12-08T03:51:17;4.00;;;3.60;;
12363;SDS011;6246;50.826;4.712;2022-12-08T03:53:43;4.43;;;3.50;;
12363;SDS011;6246;50.826;4.712;2022-12-08T03:56:18;4.17;;;3.63;;
12363;SDS011;6246;50.826;4.712;2022-12-08T03:58:46;4.60;;;3.90;;
12363;SDS011;6246;50.826;4.712;2022-12-08T04:01:12;4.10;;;3.70;;
12363;SDS011;6246;50.826;4.712;2022-12-08T04:03:38;4.23;;;3.83;;
12363;SDS011;6246;50.826;4.712;2022-12-08T04:06:04;4.93;;;3.67;;
12363;SDS011;6246;50.826;4.712;2022-12-08T04:08:31;4.53;;;3.87;;
12363;SDS011;6246;50.826;4.712;2022-12-08T04:10:57;3.70;;;3.27;;
12363;SDS011;6246;50.826;4.712;2022-12-08T04:13:23;4.43;;;3.80;;
12363;SDS011;6246;50.826;4.712;2022-12-08T04:15:49;5.87;;;4.30;;
12363;SDS011;6246;50.826;4.712;2022-12-08T04:18:15;4.10;;;3.50;;
12363;SDS011;6246;50.826;4.712;2022-12-08T04:20:42;4.10;;;3.70;;
12363;SDS011;6246;50.826;4.712;2022-12-08T04:23:08;5.83;;;4.10;;
12363;SDS011;6246;50.826;4.712;2022-12-08T04:25:34;4.33;;;3.87;;
12363;SDS011;6246;50.826;4.712;2022-12-08T04:28:01;6.30;;;4.20;;
12363;SDS011;6246;50.826;4.712;2022-12-08T04:30:27;4.53;;;4.03;;
12363;SDS011;6246;50.826;4.712;2022-12-08T04:32:53;4.20;;;3.80;;
12363;SDS011;6246;50.826;4.712;2022-12-08T04:35:19;6.37;;;4.50;;
12363;SDS011;6246;50.826;4.712;2022-12-08T04:37:45;4.30;;;3.90;;
12363;SDS011;6246;50.826;4.712;2022-12-08T04:40:11;4.17;;;3.77;;
12363;SDS011;6246;50.826;4.712;2022-12-08T04:42:37;5.70;;;3.93;;
12363;SDS011;6246;50.826;4.712;2022-12-08T04:45:03;3.90;;;3.50;;
12363;SDS011;6246;50.826;4.712;2022-12-08T04:47:29;5.07;;;3.90;;
12363;SDS011;6246;50.826;4.712;2022-12-08T04:49:55;5.77;;;4.30;;
12363;SDS011;6246;50.826;4.712;2022-12-08T04:52:22;4.70;;;3.90;;
12363;SDS011;6246;50.826;4.712;2022-12-08T04:54:48;4.97;;;4.07;;
12363;SDS011;6246;50.826;4.712;2022-12-08T04:57:14;5.67;;;3.77;;
12363;SDS011;6246;50.826;4.712;2022-12-08T04:59:40;4.80;;;3.90;;
12363;SDS011;6246;50.826;4.712;2022-12-08T05:02:06;4.50;;;3.80;;
12363;SDS011;6246;50.826;4.712;2022-12-08T05:04:32;4.33;;;3.93;;
12363;SDS011;6246;50.826;4.712;2022-12-08T05:06:58;5.10;;;4.00;;
12363;SDS011;6246;50.826;4.712;2022-12-08T05:09:24;4.97;;;4.27;;
12363;SDS011;6246;50.826;4.712;2022-12-08T05:11:50;4.87;;;4.10;;
12363;SDS011;6246;50.826;4.712;2022-12-08T05:14:16;3.90;;;3.50;;
12363;SDS011;6246;50.826;4.712;2022-12-08T05:16:43;4.33;;;3.90;;
12363;SDS011;6246;50.826;4.712;2022-12-08T05:19:09;5.27;;;3.93;;
12363;SDS011;6246;50.826;4.712;2022-12-08T05:21:35;3.90;;;3.60;;
12363;SDS011;6246;50.826;4.712;2022-12-08T05:24:01;4.23;;;3.83;;
12363;SDS011;6246;50.826;4.712;2022-12-08T05:26:27;4.63;;;4.20;;
12363;SDS011;6246;50.826;4.712;2022-12-08T05:28:53;4.83;;;4.17;;
12363;SDS011;6246;50.826;4.712;2022-12-08T05:31:19;4.10;;;3.70;;
12363;SDS011;6246;50.826;4.712;2022-12-08T05:33:45;5.70;;;4.07;;
12363;SDS011;6246;50.826;4.712;2022-12-08T05:36:12;4.77;;;3.70;;
12363;SDS011;6246;50.826;4.712;2022-12-08T05:38:39;5.27;;;4.10;;
12363;SDS011;6246;50.826;4.712;2022-12-08T05:41:11;4.77;;;4.00;;
12363;SDS011;6246;50.826;4.712;2022-12-08T05:43:38;5.07;;;4.03;;
12363;SDS011;6246;50.826;4.712;2022-12-08T05:46:04;4.30;;;3.90;;
12363;SDS011;6246;50.826;4.712;2022-12-08T05:48:31;4.83;;;3.90;;
12363;SDS011;6246;50.826;4.712;2022-12-08T05:50:57;5.17;;;3.97;;
12363;SDS011;6246;50.826;4.712;2022-12-08T05:53:23;4.30;;;3.90;;
12363;SDS011;6246;50.826;4.712;2022-12-08T05:55:49;4.90;;;3.80;;
12363;SDS011;6246;50.826;4.712;2022-12-08T05:58:16;3.97;;;3.67;;
12363;SDS011;6246;50.826;4.712;2022-12-08T06:00:43;4.13;;;3.73;;
12363;SDS011;6246;50.826;4.712;2022-12-08T06:03:12;4.23;;;3.83;;
12363;SDS011;6246;50.826;4.712;2022-12-08T06:05:39;4.37;;;3.80;;
12363;SDS011;6246;50.826;4.712;2022-12-08T06:08:06;5.50;;;4.07;;
12363;SDS011;6246;50.826;4.712;2022-12-08T06:10:32;5.53;;;4.00;;
12363;SDS011;6246;50.826;4.712;2022-12-08T06:12:58;5.10;;;3.90;;
12363;SDS011;6246;50.826;4.712;2022-12-08T06:15:24;4.57;;;3.93;;
12363;SDS011;6246;50.826;4.712;2022-12-08T06:17:50;4.63;;;3.87;;
12363;SDS011;6246;50.826;4.712;2022-12-08T06:20:16;4.90;;;4.03;;
12363;SDS011;6246;50.826;4.712;2022-12-08T06:22:42;4.93;;;3.90;;
12363;SDS011;6246;50.826;4.712;2022-12-08T06:25:08;4.77;;;3.63;;
12363;SDS011;6246;50.826;4.712;2022-12-08T06:27:34;5.00;;;3.93;;
12363;SDS011;6246;50.826;4.712;2022-12-08T06:30:00;6.17;;;4.30;;
12363;SDS011;6246;50.826;4.712;2022-12-08T06:32:26;4.73;;;4.00;;
12363;SDS011;6246;50.826;4.712;2022-12-08T06:34:52;3.87;;;3.57;;
12363;SDS011;6246;50.826;4.712;2022-12-08T06:37:18;5.50;;;3.90;;
12363;SDS011;6246;50.826;4.712;2022-12-08T06:39:44;4.63;;;3.90;;
12363;SDS011;6246;50.826;4.712;2022-12-08T06:42:10;4.30;;;3.73;;
12363;SDS011;6246;50.826;4.712;2022-12-08T06:44:55;4.77;;;4.00;;
12363;SDS011;6246;50.826;4.712;2022-12-08T06:47:21;4.87;;;4.10;;
12363;SDS011;6246;50.826;4.712;2022-12-08T06:49:47;5.07;;;4.00;;
12363;SDS011;6246;50.826;4.712;2022-12-08T06:52:13;5.13;;;4.10;;
12363;SDS011;6246;50.826;4.712;2022-12-08T06:54:39;5.07;;;3.80;;
12363;SDS011;6246;50.826;4.712;2022-12-08T06:57:05;4.57;;;3.67;;
12363;SDS011;6246;50.826;4.712;2022-12-08T06:59:31;7.53;;;4.50;;
12363;SDS011;6246;50.826;4.712;2022-12-08T07:01:57;5.63;;;3.90;;
12363;SDS011;6246;50.826;4.712;2022-12-08T07:04:23;5.33;;;3.97;;
12363;SDS011;6246;50.826;4.712;2022-12-08T07:06:49;4.20;;;3.80;;
12363;SDS011;6246;50.826;4.712;2022-12-08T07:09:15;5.17;;;3.93;;
12363;SDS011;6246;50.826;4.712;2022-12-08T07:11:41;4.20;;;3.80;;
12363;SDS011;6246;50.826;4.712;2022-12-08T07:14:07;4.10;;;3.70;;
12363;SDS011;6246;50.826;4.712;2022-12-08T07:16:34;5.73;;;3.70;;
12363;SDS011;6246;50.826;4.712;2022-12-08T07:19:01;4.13;;;3.83;;
12363;SDS011;6246;50.826;4.712;2022-12-08T07:21:27;4.10;;;3.70;;
12363;SDS011;6246;50.826;4.712;2022-12-08T07:23:53;4.10;;;3.70;;
12363;SDS011;6246;50.826;4.712;2022-12-08T07:26:19;4.30;;;3.70;;
12363;SDS011;6246;50.826;4.712;2022-12-08T07:28:45;4.67;;;3.50;;
12363;SDS011;6246;50.826;4.712;2022-12-08T07:31:18;5.30;;;3.83;;
12363;SDS011;6246;50.826;4.712;2022-12-08T07:33:44;6.33;;;4.10;;
12363;SDS011;6246;50.826;4.712;2022-12-08T07:36:10;7.63;;;4.03;;
12363;SDS011;6246;50.826;4.712;2022-12-08T07:38:36;4.37;;;3.70;;
12363;SDS011;6246;50.826;4.712;2022-12-08T07:41:03;4.77;;;3.57;;
12363;SDS011;6246;50.826;4.712;2022-12-08T07:43:28;4.97;;;3.77;;
12363;SDS011;6246;50.826;4.712;2022-12-08T07:45:54;4.43;;;3.73;;
12363;SDS011;6246;50.826;4.712;2022-12-08T07:48:20;4.53;;;3.90;;
12363;SDS011;6246;50.826;4.712;2022-12-08T07:50:46;4.53;;;3.97;;
12363;SDS011;6246;50.826;4.712;2022-12-08T07:53:13;4.80;;;3.73;;
12363;SDS011;6246;50.826;4.712;2022-12-08T07:55:42;5.20;;;3.80;;
12363;SDS011;6246;50.826;4.712;2022-12-08T07:58:08;4.20;;;3.60;;
12363;SDS011;6246;50.826;4.712;2022-12-08T08:00:34;3.93;;;3.37;;
12363;SDS011;6246;50.826;4.712;2022-12-08T08:03:00;5.50;;;4.17;;
12363;SDS011;6246;50.826;4.712;2022-12-08T08:05:26;3.67;;;3.37;;
12363;SDS011;6246;50.826;4.712;2022-12-08T08:07:53;3.87;;;3.53;;
12363;SDS011;6246;50.826;4.712;2022-12-08T08:10:19;3.53;;;3.23;;
12363;SDS011;6246;50.826;4.712;2022-12-08T08:12:45;4.90;;;3.67;;
12363;SDS011;6246;50.826;4.712;2022-12-08T08:15:11;4.43;;;3.20;;
12363;SDS011;6246;50.826;4.712;2022-12-08T08:17:37;4.07;;;3.43;;
12363;SDS011;6246;50.826;4.712;2022-12-08T08:20:04;4.50;;;3.57;;
12363;SDS011;6246;50.826;4.712;2022-12-08T08:22:31;3.57;;;3.27;;
12363;SDS011;6246;50.826;4.712;2022-12-08T08:24:57;4.73;;;3.70;;
12363;SDS011;6246;50.826;4.712;2022-12-08T08:27:23;4.23;;;3.77;;
12363;SDS011;6246;50.826;4.712;2022-12-08T08:29:50;5.23;;;3.77;;
12363;SDS011;6246;50.826;4.712;2022-12-08T08:32:16;3.90;;;3.50;;
12363;SDS011;6246;50.826;4.712;2022-12-08T08:34:42;4.73;;;3.60;;
12363;SDS011;6246;50.826;4.712;2022-12-08T08:37:08;3.73;;;3.33;;
12363;SDS011;6246;50.826;4.712;2022-12-08T08:39:34;4.37;;;3.70;;
12363;SDS011;6246;50.826;4.712;2022-12-08T08:42:00;6.20;;;3.60;;
12363;SDS011;6246;50.826;4.712;2022-12-08T08:44:27;3.37;;;3.07;;
12363;SDS011;6246;50.826;4.712;2022-12-08T08:46:53;4.93;;;3.53;;
12363;SDS011;6246;50.826;4.712;2022-12-08T08:49:19;4.30;;;3.67;;
12363;SDS011;6246;50.826;4.712;2022-12-08T08:51:45;3.57;;;3.27;;
12363;SDS011;6246;50.826;4.712;2022-12-08T08:54:11;3.73;;;3.33;;
12363;SDS011;6246;50.826;4.712;2022-12-08T08:56:37;5.73;;;3.87;;
12363;SDS011;6246;50.826;4.712;2022-12-08T08:59:03;4.80;;;3.57;;
12363;SDS011;6246;50.826;4.712;2022-12-08T09:01:29;4.10;;;3.40;;
12363;SDS011;6246;50.826;4.712;2022-12-08T09:03:55;5.00;;;3.43;;
12363;SDS011;6246;50.826;4.712;2022-12-08T09:06:22;3.60;;;3.30;;
12363;SDS011;6246;50.826;4.712;2022-12-08T09:08:48;4.50;;;3.40;;
12363;SDS011;6246;50.826;4.712;2022-12-08T09:11:15;4.23;;;3.30;;
12363;SDS011;6246;50.826;4.712;2022-12-08T09:13:42;3.73;;;3.17;;
12363;SDS011;6246;50.826;4.712;2022-12-08T09:16:09;4.57;;;3.50;;
12363;SDS011;6246;50.826;4.712;2022-12-08T09:18:35;4.07;;;3.00;;
12363;SDS011;6246;50.826;4.712;2022-12-08T09:21:08;4.67;;;3.40;;
12363;SDS011;6246;50.826;4.712;2022-12-08T09:23:37;4.90;;;3.33;;
12363;SDS011;6246;50.826;4.712;2022-12-08T09:26:03;3.80;;;3.10;;
12363;SDS011;6246;50.826;4.712;2022-12-08T09:28:29;3.70;;;3.30;;
12363;SDS011;6246;50.826;4.712;2022-12-08T09:30:55;3.40;;;3.10;;
12363;SDS011;6246;50.826;4.712;2022-12-08T09:33:21;3.47;;;3.13;;
12363;SDS011;6246;50.826;4.712;2022-12-08T09:35:47;4.30;;;3.20;;
12363;SDS011;6246;50.826;4.712;2022-12-08T09:38:13;4.20;;;3.37;;
12363;SDS011;6246;50.826;4.712;2022-12-08T09:40:49;4.50;;;3.40;;
12363;SDS011;6246;50.826;4.712;2022-12-08T09:45:41;4.10;;;3.33;;
12363;SDS011;6246;50.826;4.712;2022-12-08T09:48:15;4.43;;;3.17;;
12363;SDS011;6246;50.826;4.712;2022-12-08T09:50:43;3.67;;;3.37;;
12363;SDS011;6246;50.826;4.712;2022-12-08T09:53:31;3.30;;;3.00;;
12363;SDS011;6246;50.826;4.712;2022-12-08T09:55:59;4.73;;;3.47;;
12363;SDS011;6246;50.826;4.712;2022-12-08T10:01:11;3.77;;;3.33;;
12363;SDS011;6246;50.826;4.712;2022-12-08T10:03:38;4.43;;;3.20;;
12363;SDS011;6246;50.826;4.712;2022-12-08T10:06:15;4.73;;;3.87;;
12363;SDS011;6246;50.826;4.712;2022-12-08T10:08:51;4.13;;;2.90;;
12363;SDS011;6246;50.826;4.712;2022-12-08T10:11:22;4.57;;;3.30;;
12363;SDS011;6246;50.826;4.712;2022-12-08T10:18:43;4.13;;;3.30;;
12363;SDS011;6246;50.826;4.712;2022-12-08T10:21:11;4.37;;;3.30;;
12363;SDS011;6246;50.826;4.712;2022-12-08T10:23:38;4.53;;;3.40;;
12363;SDS011;6246;50.826;4.712;2022-12-08T10:26:07;4.50;;;3.33;;
12363;SDS011;6246;50.826;4.712;2022-12-08T10:28:36;4.50;;;3.13;;
12363;SDS011;6246;50.826;4.712;2022-12-08T10:31:02;3.83;;;3.43;;
12363;SDS011;6246;50.826;4.712;2022-12-08T10:33:31;4.93;;;3.63;;
12363;SDS011;6246;50.826;4.712;2022-12-08T10:35:58;4.87;;;3.63;;
12363;SDS011;6246;50.826;4.712;2022-12-08T10:38:29;3.47;;;3.00;;
12363;SDS011;6246;50.826;4.712;2022-12-08T10:41:14;3.63;;;2.67;;
12363;SDS011;6246;50.826;4.712;2022-12-08T10:43:47;4.30;;;3.53;;
12363;SDS011;6246;50.826;4.712;2022-12-08T10:46:18;4.53;;;3.30;;
12363;SDS011;6246;50.826;4.712;2022-12-08T10:53:55;5.00;;;3.73;;
12363;SDS011;6246;50.826;4.712;2022-12-08T10:56:23;5.43;;;3.33;;
12363;SDS011;6246;50.826;4.712;2022-12-08T10:58:50;5.07;;;3.50;;
12363;SDS011;6246;50.826;4.712;2022-12-08T11:01:32;4.87;;;3.53;;
12363;SDS011;6246;50.826;4.712;2022-12-08T11:04:00;4.53;;;3.60;;
12363;SDS011;6246;50.826;4.712;2022-12-08T11:06:30;3.97;;;3.20;;
12363;SDS011;6246;50.826;4.712;2022-12-08T11:08:58;4.10;;;3.67;;
12363;SDS011;6246;50.826;4.712;2022-12-08T11:14:11;3.43;;;3.10;;
12363;SDS011;6246;50.826;4.712;2022-12-08T11:16:40;3.57;;;3.27;;
12363;SDS011;6246;50.826;4.712;2022-12-08T11:19:11;4.40;;;3.97;;
12363;SDS011;6246;50.826;4.712;2022-12-08T11:21:38;4.20;;;3.20;;
12363;SDS011;6246;50.826;4.712;2022-12-08T11:24:17;3.80;;;3.13;;
12363;SDS011;6246;50.826;4.712;2022-12-08T11:26:48;4.80;;;3.40;;
12363;SDS011;6246;50.826;4.712;2022-12-08T11:29:14;4.53;;;3.17;;
12363;SDS011;6246;50.826;4.712;2022-12-08T11:31:51;3.70;;;3.23;;
12363;SDS011;6246;50.826;4.712;2022-12-08T11:34:36;3.37;;;3.07;;
12363;SDS011;6246;50.826;4.712;2022-12-08T11:37:04;4.70;;;3.40;;
12363;SDS011;6246;50.826;4.712;2022-12-08T11:39:31;3.50;;;3.20;;
12363;SDS011;6246;50.826;4.712;2022-12-08T11:41:59;4.17;;;3.10;;
12363;SDS011;6246;50.826;4.712;2022-12-08T11:47:03;3.13;;;2.83;;
12363;SDS011;6246;50.826;4.712;2022-12-08T11:49:40;3.73;;;2.80;;
12363;SDS011;6246;50.826;4.712;2022-12-08T11:52:19;3.27;;;2.70;;
12363;SDS011;6246;50.826;4.712;2022-12-08T11:54:49;3.03;;;2.33;;
12363;SDS011;6246;50.826;4.712;2022-12-08T11:57:17;2.60;;;2.40;;
12363;SDS011;6246;50.826;4.712;2022-12-08T11:59:48;3.57;;;3.13;;
12363;SDS011;6246;50.826;4.712;2022-12-08T12:04:54;2.87;;;2.63;;
12363;SDS011;6246;50.826;4.712;2022-12-08T12:18:02;1.73;;;1.60;;
12363;SDS011;6246;50.826;4.712;2022-12-08T12:20:33;2.43;;;2.23;;
12363;SDS011;6246;50.826;4.712;2022-12-08T12:23:07;2.50;;;2.10;;
12363;SDS011;6246;50.826;4.712;2022-12-08T12:25:38;2.87;;;2.20;;
12363;SDS011;6246;50.826;4.712;2022-12-08T12:28:10;2.53;;;2.00;;
12363;SDS011;6246;50.826;4.712;2022-12-08T12:33:15;3.10;;;2.80;;
12363;SDS011;6246;50.826;4.712;2022-12-08T12:35:43;2.17;;;2.07;;
12363;SDS011;6246;50.826;4.712;2022-12-08T12:41:08;2.47;;;2.20;;
12363;SDS011;6246;50.826;4.712;2022-12-08T12:43:35;2.33;;;2.13;;
12363;SDS011;6246;50.826;4.712;2022-12-08T12:46:36;3.33;;;2.37;;
12363;SDS011;6246;50.826;4.712;2022-12-08T12:49:46;2.30;;;2.10;;
12363;SDS011;6246;50.826;4.712;2022-12-08T12:51:43;2.33;;;2.13;;
12363;SDS011;6246;50.826;4.712;2022-12-08T12:54:20;3.10;;;2.20;;
12363;SDS011;6246;50.826;4.712;2022-12-08T12:56:53;2.30;;;1.90;;
12363;SDS011;6246;50.826;4.712;2022-12-08T13:01:57;2.17;;;1.67;;
12363;SDS011;6246;50.826;4.712;2022-12-08T13:04:33;2.90;;;2.20;;
12363;SDS011;6246;50.826;4.712;2022-12-08T13:07:00;2.67;;;2.27;;
12363;SDS011;6246;50.826;4.712;2022-12-08T13:09:34;2.20;;;2.00;;
12363;SDS011;6246;50.826;4.712;2022-12-08T13:12:06;2.50;;;2.30;;
12363;SDS011;6246;50.826;4.712;2022-12-08T13:14:35;2.47;;;2.13;;
12363;SDS011;6246;50.826;4.712;2022-12-08T13:17:03;2.27;;;2.00;;
12363;SDS011;6246;50.826;4.712;2022-12-08T13:19:30;3.07;;;2.30;;
12363;SDS011;6246;50.826;4.712;2022-12-08T13:21:57;2.87;;;2.10;;
12363;SDS011;6246;50.826;4.712;2022-12-08T13:24:26;2.30;;;1.80;;
12363;SDS011;6246;50.826;4.712;2022-12-08T13:29:28;1.90;;;1.77;;
12363;SDS011;6246;50.826;4.712;2022-12-08T13:31:58;2.23;;;2.03;;
12363;SDS011;6246;50.826;4.712;2022-12-08T13:36:56;2.33;;;2.13;;
12363;SDS011;6246;50.826;4.712;2022-12-08T13:44:36;1.80;;;1.70;;
12363;SDS011;6246;50.826;4.712;2022-12-08T13:47:05;2.13;;;1.80;;
12363;SDS011;6246;50.826;4.712;2022-12-08T13:49:35;2.03;;;1.93;;
12363;SDS011;6246;50.826;4.712;2022-12-08T13:52:02;2.60;;;1.83;;
12363;SDS011;6246;50.826;4.712;2022-12-08T13:54:34;2.10;;;1.70;;
12363;SDS011;6246;50.826;4.712;2022-12-08T13:57:03;2.40;;;1.90;;
12363;SDS011;6246;50.826;4.712;2022-12-08T13:59:31;2.93;;;2.47;;
12363;SDS011;6246;50.826;4.712;2022-12-08T14:04:44;1.67;;;1.57;;
12363;SDS011;6246;50.826;4.712;2022-12-08T14:07:11;2.93;;;2.20;;
12363;SDS011;6246;50.826;4.712;2022-12-08T14:09:37;1.80;;;1.67;;
12363;SDS011;6246;50.826;4.712;2022-12-08T14:12:14;3.10;;;2.07;;
12363;SDS011;6246;50.826;4.712;2022-12-08T14:14:43;1.73;;;1.63;;
12363;SDS011;6246;50.826;4.712;2022-12-08T14:17:22;2.17;;;1.60;;
12363;SDS011;6246;50.826;4.712;2022-12-08T14:19:56;2.20;;;2.00;;
12363;SDS011;6246;50.826;4.712;2022-12-08T14:22:22;1.80;;;1.70;;
12363;SDS011;6246;50.826;4.712;2022-12-08T14:24:49;2.43;;;1.80;;
12363;SDS011;6246;50.826;4.712;2022-12-08T14:27:17;3.47;;;2.20;;
12363;SDS011;6246;50.826;4.712;2022-12-08T14:29:51;1.63;;;1.30;;
12363;SDS011;6246;50.826;4.712;2022-12-08T14:35:32;3.50;;;2.07;;
12363;SDS011;6246;50.826;4.712;2022-12-08T14:37:46;1.93;;;1.70;;
12363;SDS011;6246;50.826;4.712;2022-12-08T14:42:52;2.37;;;2.00;;
12363;SDS011;6246;50.826;4.712;2022-12-08T14:45:19;2.23;;;1.50;;
12363;SDS011;6246;50.826;4.712;2022-12-08T14:47:45;2.40;;;1.70;;
12363;SDS011;6246;50.826;4.712;2022-12-08T14:52:57;2.23;;;2.03;;
12363;SDS011;6246;50.826;4.712;2022-12-08T14:55:23;2.10;;;1.83;;
12363;SDS011;6246;50.826;4.712;2022-12-08T14:57:49;3.47;;;2.13;;
12363;SDS011;6246;50.826;4.712;2022-12-08T15:00:19;1.87;;;1.77;;
12363;SDS011;6246;50.826;4.712;2022-12-08T15:02:46;2.90;;;2.00;;
12363;SDS011;6246;50.826;4.712;2022-12-08T15:05:16;1.97;;;1.60;;
12363;SDS011;6246;50.826;4.712;2022-12-08T15:13:00;1.50;;;1.40;;
12363;SDS011;6246;50.826;4.712;2022-12-08T15:15:27;3.57;;;2.03;;
12363;SDS011;6246;50.826;4.712;2022-12-08T15:17:59;2.60;;;1.50;;
12363;SDS011;6246;50.826;4.712;2022-12-08T15:20:29;3.47;;;2.20;;
12363;SDS011;6246;50.826;4.712;2022-12-08T15:22:57;1.80;;;1.70;;
12363;SDS011;6246;50.826;4.712;2022-12-08T15:25:23;1.80;;;1.60;;
12363;SDS011;6246;50.826;4.712;2022-12-08T15:27:50;1.50;;;1.40;;
12363;SDS011;6246;50.826;4.712;2022-12-08T15:30:17;2.27;;;1.87;;
12363;SDS011;6246;50.826;4.712;2022-12-08T15:32:43;1.97;;;1.60;;
12363;SDS011;6246;50.826;4.712;2022-12-08T15:35:13;2.00;;;1.60;;
12363;SDS011;6246;50.826;4.712;2022-12-08T15:37:40;1.80;;;1.53;;
12363;SDS011;6246;50.826;4.712;2022-12-08T15:40:06;2.13;;;1.50;;
12363;SDS011;6246;50.826;4.712;2022-12-08T15:42:35;2.97;;;1.70;;
12363;SDS011;6246;50.826;4.712;2022-12-08T15:45:01;1.40;;;1.30;;
12363;SDS011;6246;50.826;4.712;2022-12-08T15:47:33;1.90;;;1.80;;
12363;SDS011;6246;50.826;4.712;2022-12-08T15:49:59;2.10;;;1.90;;
12363;SDS011;6246;50.826;4.712;2022-12-08T15:52:28;1.70;;;1.40;;
12363;SDS011;6246;50.826;4.712;2022-12-08T15:54:54;1.77;;;1.67;;
12363;SDS011;6246;50.826;4.712;2022-12-08T15:57:27;1.67;;;1.50;;
12363;SDS011;6246;50.826;4.712;2022-12-08T15:59:54;1.43;;;1.33;;
12363;SDS011;6246;50.826;4.712;2022-12-08T16:02:20;2.03;;;1.57;;
12363;SDS011;6246;50.826;4.712;2022-12-08T16:04:46;2.17;;;1.60;;
12363;SDS011;6246;50.826;4.712;2022-12-08T16:07:24;1.20;;;1.20;;
12363;SDS011;6246;50.826;4.712;2022-12-08T16:09:50;2.63;;;1.90;;
12363;SDS011;6246;50.826;4.712;2022-12-08T16:12:18;2.97;;;1.40;;
12363;SDS011;6246;50.826;4.712;2022-12-08T16:15:03;1.60;;;1.50;;
12363;SDS011;6246;50.826;4.712;2022-12-08T16:17:29;1.50;;;1.37;;
12363;SDS011;6246;50.826;4.712;2022-12-08T16:19:55;2.90;;;1.90;;
12363;SDS011;6246;50.826;4.712;2022-12-08T16:22:23;3.17;;;2.30;;
12363;SDS011;6246;50.826;4.712;2022-12-08T16:24:49;3.40;;;1.87;;
12363;SDS011;6246;50.826;4.712;2022-12-08T16:27:23;3.53;;;1.97;;
12363;SDS011;6246;50.826;4.712;2022-12-08T16:29:51;2.30;;;1.80;;
12363;SDS011;6246;50.826;4.712;2022-12-08T16:32:17;2.03;;;1.60;;
12363;SDS011;6246;50.826;4.712;2022-12-08T16:34:43;2.07;;;1.80;;
12363;SDS011;6246;50.826;4.712;2022-12-08T16:37:13;2.07;;;1.87;;
12363;SDS011;6246;50.826;4.712;2022-12-08T16:39:40;2.07;;;1.87;;